createdAt,value
2022-12-25T00:02:12.501Z,49.45
2022-12-25T00:04:38.910Z,56.92
2022-12-25T00:07:05.286Z,41.70
2022-12-25T00:09:31.678Z,41.65
2022-12-25T00:11:58.065Z,38.47
2022-12-25T00:14:24.424Z,39.00
2022-12-25T00:16:50.823Z,36.67
2022-12-25T00:19:17.215Z,36.90
2022-12-25T00:21:43.592Z,40.03
2022-12-25T00:24:09.950Z,42.05
2022-12-25T00:26:36.355Z,37.20
2022-12-25T00:29:02.810Z,40.90
2022-12-25T00:31:29.380Z,37.83
2022-12-25T00:33:55.819Z,34.42
2022-12-25T00:36:22.698Z,26.02
2022-12-25T00:38:49.271Z,37.25
2022-12-25T00:41:38.552Z,36.92
2022-12-25T00:44:05.647Z,36.97
2022-12-25T00:46:32.098Z,31.48
2022-12-25T00:49:01.918Z,39.28
2022-12-25T00:51:28.575Z,34.83
2022-12-25T00:53:54.948Z,31.20
2022-12-25T00:56:21.310Z,31.08
2022-12-25T00:58:47.709Z,33.15
2022-12-25T01:01:14.315Z,36.63
2022-12-25T01:03:40.870Z,32.03
2022-12-25T01:06:08.484Z,28.13
2022-12-25T01:08:37.135Z,31.42
2022-12-25T01:11:07.976Z,34.83
2022-12-25T01:13:36.511Z,25.88
2022-12-25T01:16:10.413Z,17.75
2022-12-25T01:18:37.689Z,34.25
2022-12-25T01:21:11.256Z,28.50
2022-12-25T01:23:37.967Z,28.85
2022-12-25T01:26:05.452Z,22.70
2022-12-25T01:28:31.825Z,26.33
2022-12-25T01:30:58.229Z,22.73
2022-12-25T01:33:24.783Z,23.27
2022-12-25T01:35:51.641Z,19.23
2022-12-25T01:38:18.025Z,22.52
2022-12-25T01:40:44.409Z,16.65
2022-12-25T01:43:28.426Z,29.33
2022-12-25T01:45:55.172Z,18.88
2022-12-25T01:48:23.981Z,20.42
2022-12-25T01:50:58.154Z,19.25
2022-12-25T01:53:25.875Z,19.38
2022-12-25T01:55:56.728Z,19.90
2022-12-25T01:58:23.151Z,21.60
2022-12-25T02:00:51.457Z,14.10
2022-12-25T02:03:18.380Z,17.45
2022-12-25T02:05:46.294Z,22.33
2022-12-25T02:08:15.085Z,19.52
2022-12-25T02:10:43.570Z,20.48
2022-12-25T02:13:10.879Z,27.77
2022-12-25T02:16:03.512Z,17.58
2022-12-25T02:18:34.758Z,24.00
2022-12-25T02:21:10.127Z,18.65
2022-12-25T02:23:53.116Z,17.17
2022-12-25T02:26:31.688Z,16.63
2022-12-25T02:29:01.576Z,13.73
2022-12-25T02:31:41.795Z,18.90
2022-12-25T02:34:46.050Z,20.83
2022-12-25T02:37:32.644Z,14.55
2022-12-25T02:40:19.947Z,13.65
2022-12-25T02:43:25.612Z,16.42
2022-12-25T02:46:13.828Z,13.20
2022-12-25T02:49:09.618Z,17.70
2022-12-25T02:51:57.817Z,13.55
2022-12-25T02:54:53.100Z,19.48
2022-12-25T02:57:41.262Z,12.45
2022-12-25T03:00:26.696Z,12.43
2022-12-25T03:03:13.163Z,18.75
2022-12-25T03:06:00.587Z,12.05
2022-12-25T03:08:31.395Z,13.35
2022-12-25T03:11:28.729Z,14.25
2022-12-25T03:14:21.026Z,12.13
2022-12-25T03:16:54.555Z,15.20
2022-12-25T03:19:47.195Z,14.98
2022-12-25T03:25:19.531Z,12.80
2022-12-25T03:27:46.459Z,14.23
2022-12-25T03:30:31.665Z,11.50
2022-12-25T03:33:43.206Z,9.23
2022-12-25T03:36:11.539Z,10.32
2022-12-25T03:38:49.356Z,12.35
2022-12-25T03:41:39.903Z,10.50
2022-12-25T03:44:51.822Z,13.68
2022-12-25T03:47:52.432Z,6.95
2022-12-25T03:50:40.850Z,8.90
2022-12-25T03:53:30.080Z,9.15
2022-12-25T03:56:15.465Z,8.45
2022-12-25T03:59:21.036Z,8.13
2022-12-25T04:02:08.423Z,9.52
2022-12-25T04:04:53.543Z,8.35
2022-12-25T04:07:38.223Z,7.95
2022-12-25T04:10:23.762Z,11.77
2022-12-25T04:13:08.436Z,12.10
2022-12-25T04:15:53.318Z,9.40
2022-12-25T04:18:38.140Z,13.50
2022-12-25T04:21:22.813Z,13.27
2022-12-25T04:24:07.762Z,16.75
2022-12-25T04:26:52.426Z,14.52
2022-12-25T04:29:37.174Z,12.07
2022-12-25T04:32:21.948Z,12.30
2022-12-25T04:35:06.802Z,9.75
2022-12-25T04:37:34.194Z,19.25
2022-12-25T04:40:00.581Z,13.75
2022-12-25T04:42:26.928Z,15.20
2022-12-25T04:44:53.309Z,11.10
2022-12-25T04:47:19.670Z,9.27
2022-12-25T04:49:46.053Z,15.05
2022-12-25T04:52:12.430Z,15.45
2022-12-25T04:54:38.928Z,12.95
2022-12-25T04:57:05.788Z,13.23
2022-12-25T04:59:32.183Z,11.98
2022-12-25T05:01:58.613Z,14.88
2022-12-25T05:04:25.036Z,9.80
2022-12-25T05:06:51.478Z,10.95
2022-12-25T05:09:17.888Z,9.65
2022-12-25T05:11:44.313Z,10.98
2022-12-25T05:14:10.676Z,12.43
2022-12-25T05:16:37.139Z,10.60
2022-12-25T05:19:03.526Z,15.55
2022-12-25T05:21:29.921Z,12.23
2022-12-25T05:23:56.294Z,13.88
2022-12-25T05:26:25.162Z,12.77
2022-12-25T05:28:51.790Z,12.40
2022-12-25T05:31:18.432Z,14.65
2022-12-25T05:33:44.836Z,12.00
2022-12-25T05:36:12.355Z,12.15
2022-12-25T05:38:39.125Z,16.15
2022-12-25T05:41:05.906Z,16.80
2022-12-25T05:43:32.274Z,17.40
2022-12-25T05:46:04.228Z,11.77
2022-12-25T05:48:30.697Z,15.45
2022-12-25T05:50:57.083Z,10.15
2022-12-25T05:53:23.443Z,10.27
2022-12-25T05:55:49.842Z,12.93
2022-12-25T05:58:16.209Z,9.95
2022-12-25T06:00:43.623Z,11.52
2022-12-25T06:03:10.047Z,12.98
2022-12-25T06:05:38.008Z,17.08
2022-12-25T06:08:04.410Z,11.52
2022-12-25T06:10:30.851Z,15.00
2022-12-25T06:12:57.243Z,15.55
2022-12-25T06:15:23.612Z,16.10
2022-12-25T06:17:49.986Z,13.88
2022-12-25T06:20:16.395Z,14.05
2022-12-25T06:22:42.812Z,17.92
2022-12-25T06:25:09.649Z,14.90
2022-12-25T06:27:36.159Z,11.60
2022-12-25T06:30:02.840Z,15.93
2022-12-25T06:32:29.215Z,10.80
2022-12-25T06:34:55.615Z,12.43
2022-12-25T06:37:22.019Z,16.40
2022-12-25T06:39:48.437Z,8.73
2022-12-25T06:42:14.827Z,10.68
2022-12-25T06:44:41.206Z,10.98
2022-12-25T06:47:07.612Z,9.20
2022-12-25T06:49:34.018Z,8.00
2022-12-25T06:52:00.385Z,15.45
2022-12-25T06:54:27.066Z,14.38
2022-12-25T06:56:53.512Z,9.30
2022-12-25T06:59:19.957Z,14.20
2022-12-25T07:01:49.599Z,8.48
2022-12-25T07:04:40.198Z,16.20
2022-12-25T07:07:09.235Z,7.38
2022-12-25T07:09:35.896Z,8.02
2022-12-25T07:12:05.203Z,11.82
2022-12-25T07:14:31.791Z,13.50
2022-12-25T07:16:58.230Z,12.68
2022-12-25T07:19:24.778Z,9.77
2022-12-25T07:21:51.137Z,10.00
2022-12-25T07:24:19.324Z,8.90
2022-12-25T07:26:45.702Z,6.88
2022-12-25T07:29:12.079Z,10.43
2022-12-25T07:31:38.482Z,9.50
2022-12-25T07:34:04.906Z,8.63
2022-12-25T07:36:31.280Z,8.93
2022-12-25T07:38:57.682Z,11.65
2022-12-25T07:41:24.093Z,10.90
2022-12-25T07:43:53.805Z,12.45
2022-12-25T07:46:21.742Z,8.48
2022-12-25T07:48:48.241Z,13.43
2022-12-25T07:51:16.051Z,13.00
2022-12-25T07:53:42.662Z,13.15
2022-12-25T07:56:17.354Z,8.20
2022-12-25T07:58:44.187Z,9.82
2022-12-25T08:01:20.170Z,4.78
2022-12-25T08:03:51.429Z,6.40
2022-12-25T08:06:18.429Z,9.77
2022-12-25T08:08:45.145Z,7.72
2022-12-25T08:11:11.514Z,6.53
2022-12-25T08:13:38.322Z,10.10
2022-12-25T08:16:07.923Z,7.50
2022-12-25T08:18:34.877Z,5.72
2022-12-25T08:21:06.423Z,6.65
2022-12-25T08:23:37.791Z,8.77
2022-12-25T08:26:06.013Z,8.80
2022-12-25T08:28:33.291Z,8.30
2022-12-25T08:30:59.759Z,8.43
2022-12-25T08:33:26.254Z,7.85
2022-12-25T08:35:52.624Z,11.88
2022-12-25T08:38:19.107Z,9.18
2022-12-25T08:40:45.523Z,10.43
2022-12-25T08:43:11.949Z,4.57
2022-12-25T08:45:38.343Z,6.82
2022-12-25T08:48:04.748Z,9.80
2022-12-25T08:50:31.134Z,6.80
2022-12-25T08:52:57.513Z,5.25
2022-12-25T08:55:23.883Z,7.00
2022-12-25T08:57:53.179Z,6.53
2022-12-25T09:00:19.820Z,9.50
2022-12-25T09:02:46.300Z,13.65
2022-12-25T09:05:12.773Z,10.27
2022-12-25T09:07:39.136Z,8.77
2022-12-25T09:10:06.167Z,13.40
2022-12-25T09:12:32.576Z,7.63
2022-12-25T09:14:58.964Z,9.30
2022-12-25T09:17:25.357Z,10.38
2022-12-25T09:19:51.782Z,36.10
2022-12-25T09:22:19.203Z,22.42
2022-12-25T09:24:45.590Z,22.27
2022-12-25T09:27:11.976Z,16.98
2022-12-25T09:29:39.021Z,12.13
2022-12-25T09:32:06.009Z,12.70
2022-12-25T09:34:32.763Z,13.00
2022-12-25T09:36:59.144Z,14.65
2022-12-25T09:39:26.777Z,10.85
2022-12-25T09:41:59.101Z,13.80
2022-12-25T09:44:29.079Z,15.68
2022-12-25T09:46:59.563Z,16.98
2022-12-25T09:49:47.222Z,16.23
2022-12-25T09:52:20.599Z,9.13
2022-12-25T09:54:53.562Z,17.85
2022-12-25T09:57:20.131Z,13.57
2022-12-25T09:59:47.542Z,10.60
2022-12-25T10:02:28.700Z,15.40
2022-12-25T10:05:07.810Z,12.25
2022-12-25T10:07:56.396Z,17.63
2022-12-25T10:10:45.435Z,17.77
2022-12-25T10:13:42.582Z,18.42
2022-12-25T10:16:18.289Z,14.57
2022-12-25T10:19:12.078Z,14.05
2022-12-25T10:21:38.753Z,15.55
2022-12-25T10:24:06.776Z,15.60
2022-12-25T10:26:34.854Z,17.55
2022-12-25T10:29:05.742Z,36.30
2022-12-25T10:31:34.825Z,116.35
2022-12-25T10:34:01.365Z,172.52
2022-12-25T10:36:29.434Z,78.85
2022-12-25T10:38:56.187Z,33.80
2022-12-25T10:41:41.291Z,137.30
2022-12-25T10:44:21.755Z,65.50
2022-12-25T10:46:50.283Z,64.50
2022-12-25T10:49:19.991Z,52.08
2022-12-25T10:51:46.593Z,29.52
2022-12-25T10:54:31.380Z,31.33
2022-12-25T10:57:20.411Z,29.90
2022-12-25T10:59:49.228Z,24.88
2022-12-25T11:02:21.527Z,28.83
2022-12-25T11:04:48.317Z,16.95
2022-12-25T11:07:17.714Z,16.67
2022-12-25T11:09:59.375Z,19.02
2022-12-25T11:12:37.470Z,15.73
2022-12-25T11:15:07.395Z,17.92
2022-12-25T11:17:35.869Z,15.27
2022-12-25T11:20:02.498Z,17.67
2022-12-25T11:22:29.280Z,30.70
2022-12-25T11:24:55.779Z,38.35
2022-12-25T11:27:28.229Z,38.97
2022-12-25T11:29:59.950Z,37.38
2022-12-25T11:32:31.715Z,30.35
2022-12-25T11:34:59.258Z,40.08
2022-12-25T11:37:28.322Z,31.95
2022-12-25T11:39:54.754Z,30.00
2022-12-25T11:42:36.929Z,24.75
2022-12-25T11:45:06.814Z,24.13
2022-12-25T11:47:42.137Z,22.45
2022-12-25T11:50:30.832Z,25.85
2022-12-25T11:53:00.328Z,28.00
2022-12-25T11:55:37.379Z,31.20
2022-12-25T11:58:22.760Z,31.73
2022-12-25T12:00:51.536Z,27.17
2022-12-25T12:03:22.426Z,33.20
2022-12-25T12:05:54.136Z,33.50
2022-12-25T12:08:20.521Z,35.95
2022-12-25T12:11:24.901Z,25.92
2022-12-25T12:14:22.275Z,32.53
2022-12-25T12:16:48.729Z,32.58
2022-12-25T12:19:41.753Z,37.20
2022-12-25T12:22:17.385Z,50.20
2022-12-25T12:24:44.549Z,34.13
2022-12-25T12:27:37.213Z,38.45
2022-12-25T12:30:05.060Z,39.30
2022-12-25T12:32:45.043Z,29.45
2022-12-25T12:35:18.239Z,31.00
2022-12-25T12:37:46.809Z,35.20
2022-12-25T12:40:29.362Z,38.55
2022-12-25T12:42:55.856Z,33.38
2022-12-25T12:45:30.186Z,36.97
2022-12-25T12:47:57.395Z,31.17
2022-12-25T12:50:50.053Z,26.80
2022-12-25T12:53:22.432Z,23.13
2022-12-25T12:55:49.445Z,32.97
2022-12-25T12:58:30.929Z,33.25
2022-12-25T13:01:33.083Z,40.10
2022-12-25T13:04:13.802Z,31.33
2022-12-25T13:06:53.877Z,32.95
2022-12-25T13:09:57.118Z,57.50
2022-12-25T13:12:23.671Z,43.15
2022-12-25T13:14:50.369Z,40.38
2022-12-25T13:17:24.972Z,32.65
2022-12-25T13:19:58.931Z,35.53
2022-12-25T13:22:30.995Z,29.73
2022-12-25T13:25:02.486Z,30.40
2022-12-25T13:27:31.664Z,41.53
2022-12-25T13:29:58.666Z,50.38
2022-12-25T13:32:28.119Z,49.60
2022-12-25T13:34:54.953Z,39.05
2022-12-25T13:37:23.619Z,43.97
2022-12-25T13:39:51.710Z,52.22
2022-12-25T13:42:21.034Z,37.05
2022-12-25T13:44:48.367Z,45.15
2022-12-25T13:47:19.797Z,40.97
2022-12-25T13:49:47.286Z,70.00
2022-12-25T13:52:22.477Z,32.13
2022-12-25T13:55:09.767Z,45.45
2022-12-25T13:57:38.952Z,278.90
2022-12-25T14:00:07.579Z,236.18
2022-12-25T14:02:38.278Z,61.25
2022-12-25T14:05:26.450Z,33.42
2022-12-25T14:07:54.012Z,36.33
2022-12-25T14:10:22.242Z,36.85
2022-12-25T14:12:50.831Z,33.38
2022-12-25T14:15:19.713Z,32.00
2022-12-25T14:17:46.380Z,45.42
2022-12-25T14:20:24.983Z,39.42
2022-12-25T14:22:56.181Z,31.20
2022-12-25T14:25:42.213Z,41.15
2022-12-25T14:28:17.981Z,232.15
2022-12-25T14:30:44.561Z,232.73
2022-12-25T14:33:16.241Z,300.77
2022-12-25T14:35:42.622Z,242.32
2022-12-25T14:38:24.393Z,428.13
2022-12-25T14:41:22.608Z,498.60
2022-12-25T14:43:53.970Z,294.27
2022-12-25T14:46:28.477Z,141.38
2022-12-25T14:49:22.981Z,203.10
2022-12-25T14:51:49.487Z,197.40
2022-12-25T14:54:19.543Z,68.00
2022-12-25T14:56:51.378Z,198.90
2022-12-25T14:59:21.073Z,77.00
2022-12-25T15:01:58.955Z,98.22
2022-12-25T15:04:26.786Z,153.00
2022-12-25T15:07:02.381Z,77.55
2022-12-25T15:09:29.960Z,67.78
2022-12-25T15:11:56.643Z,81.40
2022-12-25T15:14:24.217Z,74.05
2022-12-25T15:16:53.074Z,394.60
2022-12-25T15:19:25.966Z,517.20
2022-12-25T15:21:55.594Z,119.28
2022-12-25T15:24:22.018Z,74.35
2022-12-25T15:26:48.420Z,58.88
2022-12-25T15:29:14.813Z,58.08
2022-12-25T15:31:42.018Z,119.65
2022-12-25T15:34:20.736Z,188.45
2022-12-25T15:36:47.994Z,104.85
2022-12-25T15:39:14.393Z,298.02
2022-12-25T15:41:59.538Z,144.13
2022-12-25T15:44:25.978Z,228.75
2022-12-25T15:46:52.697Z,441.23
2022-12-25T15:49:19.342Z,581.67
2022-12-25T15:51:46.127Z,524.88
2022-12-25T15:54:12.750Z,286.92
2022-12-25T15:56:42.697Z,327.63
2022-12-25T15:59:12.265Z,176.23
2022-12-25T16:01:40.031Z,221.05
2022-12-25T16:04:06.530Z,242.27
2022-12-25T16:06:32.898Z,216.63
2022-12-25T16:08:59.288Z,479.52
2022-12-25T16:11:25.671Z,272.67
2022-12-25T16:13:52.107Z,263.75
2022-12-25T16:16:18.532Z,195.50
2022-12-25T16:18:47.747Z,73.35
2022-12-25T16:21:16.752Z,71.22
2022-12-25T16:23:43.472Z,94.32
2022-12-25T16:26:09.994Z,467.02
2022-12-25T16:28:36.393Z,152.88
2022-12-25T16:31:02.836Z,112.50
2022-12-25T16:33:29.344Z,379.63
2022-12-25T16:35:55.748Z,454.75
2022-12-25T16:38:22.142Z,268.20
2022-12-25T16:40:55.079Z,436.40
2022-12-25T16:43:24.105Z,421.05
2022-12-25T16:45:50.904Z,195.07
2022-12-25T16:48:17.399Z,97.05
2022-12-25T16:50:43.827Z,92.10
2022-12-25T16:53:12.201Z,158.25
2022-12-25T16:55:38.699Z,212.55
2022-12-25T16:58:06.252Z,79.88
2022-12-25T17:00:32.705Z,61.55
2022-12-25T17:03:00.270Z,60.00
2022-12-25T17:05:26.983Z,53.72
2022-12-25T17:07:53.390Z,53.33
2022-12-25T17:10:21.122Z,49.45
2022-12-25T17:12:47.548Z,43.47
2022-12-25T17:15:13.943Z,53.63
2022-12-25T17:17:40.313Z,50.72
2022-12-25T17:20:07.292Z,36.75
2022-12-25T17:22:33.662Z,44.03
2022-12-25T17:25:00.040Z,35.97
2022-12-25T17:27:26.727Z,39.42
2022-12-25T17:29:53.102Z,37.30
2022-12-25T17:32:19.478Z,39.25
2022-12-25T17:34:46.670Z,38.50
2022-12-25T17:37:13.094Z,34.92
2022-12-25T17:39:39.524Z,35.05
2022-12-25T17:42:05.890Z,33.80
2022-12-25T17:44:32.291Z,37.25
2022-12-25T17:46:58.786Z,37.13
2022-12-25T17:49:25.451Z,36.80
2022-12-25T17:51:53.396Z,35.00
2022-12-25T17:54:19.800Z,28.63
2022-12-25T17:56:46.193Z,37.35
2022-12-25T17:59:17.872Z,41.00
2022-12-25T18:01:44.673Z,32.38
2022-12-25T18:04:11.131Z,30.67
2022-12-25T18:06:37.597Z,29.50
2022-12-25T18:09:06.044Z,22.95
2022-12-25T18:11:33.134Z,22.20
2022-12-25T18:14:04.059Z,17.20
2022-12-25T18:16:33.514Z,19.45
2022-12-25T18:19:00.239Z,21.15
2022-12-25T18:21:26.823Z,14.63
2022-12-25T18:23:53.364Z,13.90
2022-12-25T18:26:20.521Z,12.82
2022-12-25T18:28:48.678Z,12.63
2022-12-25T18:31:18.080Z,10.20
2022-12-25T18:33:44.721Z,9.23
2022-12-25T18:36:13.274Z,9.35
2022-12-25T18:38:39.660Z,10.80
2022-12-25T18:41:07.097Z,7.55
2022-12-25T18:43:54.149Z,10.13
2022-12-25T18:46:22.167Z,9.57
2022-12-25T18:48:48.775Z,7.68
2022-12-25T18:51:15.278Z,8.52
2022-12-25T18:53:41.750Z,11.13
2022-12-25T18:56:13.351Z,8.55
2022-12-25T18:58:40.247Z,10.05
2022-12-25T19:01:19.227Z,7.38
2022-12-25T19:03:46.231Z,9.68
2022-12-25T19:06:23.847Z,14.02
2022-12-25T19:08:51.087Z,9.57
2022-12-25T19:11:18.355Z,14.10
2022-12-25T19:13:44.846Z,13.38
2022-12-25T19:16:11.776Z,11.68
2022-12-25T19:18:38.990Z,11.15
2022-12-25T19:21:07.977Z,11.90
2022-12-25T19:23:34.935Z,13.25
2022-12-25T19:26:04.584Z,14.18
2022-12-25T19:28:30.988Z,13.32
2022-12-25T19:30:59.583Z,19.00
2022-12-25T19:33:26.434Z,16.35
2022-12-25T19:35:52.826Z,13.30
2022-12-25T19:38:20.065Z,15.73
2022-12-25T19:41:00.543Z,13.48
2022-12-25T19:43:36.084Z,16.63
2022-12-25T19:46:03.500Z,18.25
2022-12-25T19:48:31.021Z,15.05
2022-12-25T19:50:57.640Z,16.42
2022-12-25T19:53:24.427Z,14.80
2022-12-25T19:55:54.847Z,19.20
2022-12-25T19:58:22.408Z,16.00
2022-12-25T20:01:07.440Z,18.85
2022-12-25T20:03:38.770Z,18.70
2022-12-25T20:06:11.078Z,19.02
2022-12-25T20:08:37.536Z,18.30
2022-12-25T20:11:03.901Z,25.77
2022-12-25T20:13:30.295Z,20.95
2022-12-25T20:16:01.216Z,27.13
2022-12-25T20:18:28.218Z,21.52
2022-12-25T20:21:06.038Z,23.52
2022-12-25T20:23:32.716Z,19.20
2022-12-25T20:26:01.180Z,20.60
2022-12-25T20:28:28.369Z,19.48
2022-12-25T20:30:55.679Z,24.42
2022-12-25T20:33:22.763Z,21.33
2022-12-25T20:35:49.951Z,26.20
2022-12-25T20:38:16.660Z,22.15
2022-12-25T20:41:24.600Z,27.15
2022-12-25T20:43:29.930Z,23.13
2022-12-25T20:45:56.436Z,19.50
2022-12-25T20:48:23.080Z,23.95
2022-12-25T20:50:49.655Z,22.35
2022-12-25T20:53:16.813Z,23.05
2022-12-25T20:55:47.732Z,22.02
2022-12-25T20:58:15.158Z,25.50
2022-12-25T21:00:43.077Z,23.40
2022-12-25T21:03:09.805Z,22.17
2022-12-25T21:05:49.738Z,26.10
2022-12-25T21:08:21.380Z,24.70
2022-12-25T21:10:52.177Z,26.80
2022-12-25T21:13:24.773Z,22.17
2022-12-25T21:15:52.539Z,26.33
2022-12-25T21:18:20.600Z,22.20
2022-12-25T21:20:49.161Z,23.55
2022-12-25T21:23:16.871Z,21.45
2022-12-25T21:25:43.324Z,25.05
2022-12-25T21:28:09.943Z,20.95
2022-12-25T21:30:36.604Z,21.30
2022-12-25T21:33:21.621Z,22.75
2022-12-25T21:35:48.045Z,23.85
2022-12-25T21:38:15.137Z,25.45
2022-12-25T21:40:41.653Z,22.92
2022-12-25T21:43:08.065Z,23.67
2022-12-25T21:45:34.952Z,25.92
2022-12-25T21:48:03.579Z,22.40
2022-12-25T21:50:48.891Z,24.60
2022-12-25T21:53:19.159Z,22.08
2022-12-25T21:55:56.754Z,26.15
2022-12-25T21:58:23.298Z,23.00
2022-12-25T22:00:49.656Z,22.00
2022-12-25T22:03:16.182Z,23.23
2022-12-25T22:06:01.371Z,22.38
2022-12-25T22:08:31.851Z,25.02
2022-12-25T22:10:58.954Z,24.75
2022-12-25T22:13:43.960Z,22.67
2022-12-25T22:16:29.137Z,21.75
2022-12-25T22:19:13.796Z,28.58
2022-12-25T22:21:40.164Z,27.70
2022-12-25T22:24:08.118Z,24.83
2022-12-25T22:26:35.080Z,23.98
2022-12-25T22:29:01.653Z,26.23
2022-12-25T22:31:28.099Z,26.17
2022-12-25T22:33:55.337Z,24.73
2022-12-25T22:36:21.785Z,30.40
2022-12-25T22:38:48.166Z,29.17
2022-12-25T22:41:14.619Z,24.52
2022-12-25T22:44:15.279Z,24.30
2022-12-25T22:46:27.446Z,22.92
2022-12-25T22:48:53.957Z,20.65
2022-12-25T22:51:20.371Z,19.50
2022-12-25T22:53:46.740Z,22.33
2022-12-25T22:56:13.129Z,17.25
2022-12-25T22:58:39.513Z,19.35
2022-12-25T23:01:09.122Z,21.45
2022-12-25T23:03:35.641Z,17.17
2022-12-25T23:06:02.146Z,19.50
2022-12-25T23:08:28.675Z,19.60
2022-12-25T23:10:55.872Z,15.38
2022-12-25T23:13:40.853Z,15.75
2022-12-25T23:16:13.163Z,12.35
2022-12-25T23:18:58.353Z,14.02
2022-12-25T23:21:43.891Z,14.05
2022-12-25T23:24:28.873Z,16.20
2022-12-25T23:26:55.362Z,13.88
2022-12-25T23:29:36.845Z,12.50
2022-12-25T23:32:03.117Z,14.93
2022-12-25T23:34:29.525Z,13.15
2022-12-25T23:36:55.901Z,16.15
2022-12-25T23:39:22.316Z,18.30
2022-12-25T23:41:48.712Z,17.52
2022-12-25T23:44:15.127Z,15.70
2022-12-25T23:46:52.527Z,17.33
2022-12-25T23:49:20.401Z,16.40
2022-12-25T23:51:46.906Z,14.88
2022-12-25T23:54:16.200Z,13.07
2022-12-25T23:56:43.559Z,13.52
2022-12-25T23:59:10.774Z,12.57
